Mc Louth, Kansas
Current Conditions -  °F | °C
As of 10:52 PM on Friday 24 Oct 2014 (Local Time) from KLWC Reporting Station
Clear Clear  
Wind Chill: 60°   Ceiling: Unl
Heat Index: 60°   Visibility: 8mi
Dew Point: 59°   Wind: 3mph
Humidity: 96%   Direction: 110°ESE
Pressure: 29.99"   Gusts: NA
Location:  39.1639°N, 95.2236°W
Report Text: KLWC 250352Z AUTO 11003KT 8SM CLR 16/15 A2999 RMK AO2 SLP153 T01560150
Loading
Personal Weather Stations






























Interactive Weather Map
Tropical Storm Tracking
New forecast layout! Learn more

10-Day Weather Forecast

Advertisements
Track Severe Weather on mobile